• Join FlightAware (Why Join?)
  • Login
  • US Flag 
02:59AM EDT


 

Airport Tracker/Info


-or-


 

Live Flight TrackerFlight Track Log ✈ CTL17 ✈ 24-Jun-2013 ✈ KBKL - KPTK

Flight Track Log - Related Links

Times and Time Zones

All times are in EDT time to prevent confusion due to time zone crossing. See the CTL17 flight status page for this flight to view local times or setup timezone preferences in your user account.

Time Position Orientation Groundspeed Altitude Reporting Facility
EDT Latitude Longitude Course Direction KTS MPH feet Rate Location/Type
06:52PM 41.5475 -81.7594 311° West 155 178 1,900  Level Cleveland Center
06:53PM 41.5700 -81.8042 304° West 152 175 2,300 540 Climbing Cleveland Center
06:54PM 41.5819 -81.8572 287° West 145 167 3,000 540 Climbing Cleveland Center
06:55PM 41.6000 -81.9106 294° West 163 188 3,400 540 Climbing Cleveland Center
06:56PM 41.6139 -81.9606 290° West 141 162 4,100 600 Climbing Cleveland Center
06:57PM 41.6278 -82.0136 289° West 140 161 4,800 720 Climbing Cleveland Center
06:58PM 41.6439 -82.0586 296° West 130 150 5,700 720 Climbing Cleveland Center
06:59PM 41.6603 -82.1006 298° West 130 150 6,200 240 Climbing Cleveland Center
07:00PM 41.6761 -82.1456 295° West 149 171 6,200  Level Cleveland Center
07:01PM 41.6942 -82.2044 292° West 163 188 6,200 -60 Level Cleveland Center
07:02PM 41.7164 -82.2578 299° West 157 181 6,100 -60 Descending Cleveland Center
07:03PM 41.7344 -82.3083 296° West 156 180 6,100  Level Cleveland Center
07:04PM 41.7503 -82.3561 295° West 156 180 6,200  Climbing Cleveland Center
07:05PM 41.7683 -82.4067 296° West 155 178 6,200 -120 Level Cleveland Center
07:07PM 41.7964 -82.4800 297° West 159 183 6,000 -60 Descending Cleveland Center
07:08PM 41.8142 -82.5361 293° West 159 183 6,100  Climbing Cleveland Center
07:09PM 41.8319 -82.5953 292° West 157 181 6,100 -60 Level Cleveland Center
07:10PM 41.8561 -82.6378 307° West 170 196 6,000 -60 Descending Cleveland Center
07:11PM 41.8994 -82.6644 335° Northwest 169 194 6,000 -240 Level Cleveland Center
07:12PM 41.9447 -82.6908 337° Northwest 175 201 5,600 -480 Descending Cleveland Center
07:13PM 41.9964 -82.7206 337° Northwest 193 222 5,100 -360 Descending Cleveland Center
07:14PM 42.0333 -82.7414 337° Northwest 170 196 5,000  Descending Cleveland Center
07:15PM 42.0786 -82.7708 334° Northwest 167 192 5,100  Climbing Cleveland Center
07:16PM 42.1242 -82.7919 341° North 169 194 5,000 -60 Descending Cleveland Center
07:17PM 42.1675 -82.8131 340° North 165 190 5,000  Level Cleveland Center
07:18PM 42.2089 -82.8369 337° Northwest 166 191 5,100 -60 Climbing Cleveland Center
07:19PM 42.2564 -82.8556 344° North 167 192 4,900 -240 Descending Cleveland Center
07:20PM 42.3039 -82.8742 344° North 170 196 4,700 -420 Descending Cleveland Center
07:21PM 42.3536 -82.8956 342° North 193 222 4,100 -300 Descending Cleveland Center
07:22PM 42.3969 -82.9167 340° North 167 192 4,100 -60 Level Cleveland Center
07:23PM 42.4381 -82.9408 337° Northwest 163 188 4,000  Descending Cleveland Center
07:24PM 42.4769 -82.9817 322° Northwest 157 181 4,100  Climbing Cleveland Center
07:25PM 42.5114 -83.0225 319° Northwest 162 186 4,000 -60 Descending Cleveland Center
07:26PM 42.5483 -83.0578 325° Northwest 161 185 4,000 -300 Level Cleveland Center
07:27PM 42.5764 -83.1067 308° West 175 201 3,500 -540 Descending Cleveland Center
07:28PM 42.6000 -83.1642 299° West 176 203 3,000 -360 Descending Cleveland Center
07:29PM 42.6197 -83.2158 297° West 162 186 2,900 -300 Descending Cleveland Center
07:30PM 42.6392 -83.2731 295° West 165 190 2,500 -420 Descending Cleveland Center
07:31PM 42.6589 -83.3275 296° West 142 163 2,100 -480 Descending Cleveland Center
07:32PM 42.6661 -83.3703 283° West 121 139 1,600 -540 Descending Cleveland Center
07:34PM 42.6500 -83.4167 290° West  Level FlightAware Approximate
07:41PM 42.6656 -83.4205 290° West  Level Estimated
07:42PM 42.6656 -83.4205 290° West  Level Estimated